Time,TemperatureF,DewpointF,PressureIn,WindDirection,WindDirectionDegrees,WindSpeedMPH,WindSpeedGustMPH,Humidity,HourlyPrecipIn,Conditions,Clouds,dailyrainin,SoftwareType,DateUTC
2013-05-03 00:11:00,-999.0,-99.9,30.24,North,-999,-999.0,-999.0,-999,-99.99,,,0.00,weatherlink.com 1.10,2013-05-03 04:11:00,
2013-05-03 00:26:00,-999.0,-99.9,30.24,North,-999,-999.0,-999.0,-999,-99.99,,,0.00,weatherlink.com 1.10,2013-05-03 04:26:00,
2013-05-03 00:41:00,-999.0,-99.9,30.24,North,-999,-999.0,-999.0,-999,-99.99,,,0.00,weatherlink.com 1.10,2013-05-03 04:41:00,
2013-05-03 00:56:00,-999.0,-99.9,30.24,North,-999,-999.0,-999.0,-999,-99.99,,,0.00,weatherlink.com 1.10,2013-05-03 04:56:00,
2013-05-03 01:11:00,-999.0,-99.9,30.24,North,-999,-999.0,-999.0,-999,-99.99,,,0.00,weatherlink.com 1.10,2013-05-03 05:11:00,
2013-05-03 01:26:00,-999.0,-99.9,30.23,North,-999,-999.0,-999.0,-999,-99.99,,,0.00,weatherlink.com 1.10,2013-05-03 05:26:00,
2013-05-03 01:41:00,-999.0,-99.9,30.24,North,-999,-999.0,-999.0,-999,-99.99,,,0.00,weatherlink.com 1.10,2013-05-03 05:41:00,
2013-05-03 01:56:00,-999.0,-99.9,30.23,North,-999,-999.0,-999.0,-999,-99.99,,,0.00,weatherlink.com 1.10,2013-05-03 05:56:00,
2013-05-03 02:11:00,-999.0,-99.9,30.23,North,-999,-999.0,-999.0,-999,-99.99,,,0.00,weatherlink.com 1.10,2013-05-03 06:11:00,
2013-05-03 02:26:00,-999.0,-99.9,30.23,North,-999,-999.0,-999.0,-999,-99.99,,,0.00,weatherlink.com 1.10,2013-05-03 06:26:00,
2013-05-03 02:41:00,-999.0,-99.9,30.23,North,-999,-999.0,-999.0,-999,-99.99,,,0.00,weatherlink.com 1.10,2013-05-03 06:41:00,
2013-05-03 02:56:00,-999.0,-99.9,30.23,North,-999,-999.0,-999.0,-999,-99.99,,,0.00,weatherlink.com 1.10,2013-05-03 06:56:00,
2013-05-03 03:11:00,-999.0,-99.9,30.23,North,-999,-999.0,-999.0,-999,-99.99,,,0.00,weatherlink.com 1.10,2013-05-03 07:11:00,
2013-05-03 03:26:00,-999.0,-99.9,30.24,North,-999,-999.0,-999.0,-999,-99.99,,,0.00,weatherlink.com 1.10,2013-05-03 07:26:00,
2013-05-03 03:41:00,-999.0,-99.9,30.23,North,-999,-999.0,-999.0,-999,-99.99,,,0.00,weatherlink.com 1.10,2013-05-03 07:41:00,
2013-05-03 03:56:00,-999.0,-99.9,30.23,North,-999,-999.0,-999.0,-999,-99.99,,,0.00,weatherlink.com 1.10,2013-05-03 07:56:00,
2013-05-03 04:11:00,-999.0,-99.9,30.23,North,-999,-999.0,-999.0,-999,-99.99,,,0.00,weatherlink.com 1.10,2013-05-03 08:11:00,
2013-05-03 04:26:00,-999.0,-99.9,30.23,North,-999,-999.0,-999.0,-999,-99.99,,,0.00,weatherlink.com 1.10,2013-05-03 08:26:00,
2013-05-03 04:41:00,-999.0,-99.9,30.24,North,-999,-999.0,-999.0,-999,-99.99,,,0.00,weatherlink.com 1.10,2013-05-03 08:41:00,
2013-05-03 04:56:00,-999.0,-99.9,30.24,North,-999,-999.0,-999.0,-999,-99.99,,,0.00,weatherlink.com 1.10,2013-05-03 08:56:00,
2013-05-03 05:11:00,-999.0,-99.9,30.24,North,-999,-999.0,-999.0,-999,-99.99,,,0.00,weatherlink.com 1.10,2013-05-03 09:11:00,
2013-05-03 05:26:00,-999.0,-99.9,30.24,North,-999,-999.0,-999.0,-999,-99.99,,,0.00,weatherlink.com 1.10,2013-05-03 09:26:00,
2013-05-03 05:41:00,-999.0,-99.9,30.24,North,-999,-999.0,-999.0,-999,-99.99,,,0.00,weatherlink.com 1.10,2013-05-03 09:41:00,
2013-05-03 05:56:00,-999.0,-99.9,30.25,North,-999,-999.0,-999.0,-999,-99.99,,,0.00,weatherlink.com 1.10,2013-05-03 09:56:00,
2013-05-03 06:11:00,-999.0,-99.9,30.25,North,-999,-999.0,-999.0,-999,-99.99,,,0.00,weatherlink.com 1.10,2013-05-03 10:11:00,
2013-05-03 06:27:00,-999.0,-99.9,30.25,North,-999,-999.0,-999.0,-999,-99.99,,,0.00,weatherlink.com 1.10,2013-05-03 10:27:00,
2013-05-03 06:41:00,-999.0,-99.9,30.26,North,-999,-999.0,-999.0,-999,-99.99,,,0.00,weatherlink.com 1.10,2013-05-03 10:41:00,
2013-05-03 06:56:00,-999.0,-99.9,30.26,North,-999,-999.0,-999.0,-999,-99.99,,,0.00,weatherlink.com 1.10,2013-05-03 10:56:00,
2013-05-03 07:11:00,-999.0,-99.9,30.27,North,-999,-999.0,-999.0,-999,-99.99,,,0.00,weatherlink.com 1.10,2013-05-03 11:11:00,
2013-05-03 07:26:00,59.4,46.0,30.27,SE,125,4.0,-999.0,61,-99.99,,,0.00,weatherlink.com 1.10,2013-05-03 11:26:00,
2013-05-03 07:41:00,61.2,47.0,30.27,SE,144,0.0,-999.0,59,-99.99,,,0.00,weatherlink.com 1.10,2013-05-03 11:41:00,
2013-05-03 07:56:00,62.7,47.0,30.27,SE,129,2.0,-999.0,57,-99.99,,,0.00,weatherlink.com 1.10,2013-05-03 11:56:00,
2013-05-03 08:11:00,63.8,48.0,30.27,SSE,148,3.0,-999.0,56,-99.99,,,0.00,weatherlink.com 1.10,2013-05-03 12:11:00,
2013-05-03 08:26:00,65.4,48.0,30.27,East,92,0.0,-999.0,54,-99.99,,,0.00,weatherlink.com 1.10,2013-05-03 12:26:00,
2013-05-03 08:41:00,67.1,49.0,30.27,SSE,159,3.0,-999.0,52,-99.99,,,0.00,weatherlink.com 1.10,2013-05-03 12:41:00,
2013-05-03 08:56:00,69.7,49.0,30.27,ESE,115,0.0,-999.0,48,-99.99,,,0.00,weatherlink.com 1.10,2013-05-03 12:56:00,
2013-05-03 09:11:00,70.7,49.0,30.27,East,79,3.0,-999.0,46,-99.99,,,0.00,weatherlink.com 1.10,2013-05-03 13:11:00,
2013-05-03 09:26:00,72.6,49.0,30.26,ENE,65,2.0,-999.0,44,-99.99,,,0.00,weatherlink.com 1.10,2013-05-03 13:26:00,
2013-05-03 09:41:00,73.0,50.0,30.26,ENE,72,3.0,-999.0,44,-99.99,,,0.00,weatherlink.com 1.10,2013-05-03 13:41:00,
2013-05-03 09:56:00,74.6,48.0,30.26,ESE,107,0.0,-999.0,39,-99.99,,,0.00,weatherlink.com 1.10,2013-05-03 13:56:00,
2013-05-03 10:11:00,75.1,46.0,30.26,SSW,192,5.0,-999.0,35,-99.99,,,0.00,weatherlink.com 1.10,2013-05-03 14:11:00,
2013-05-03 10:27:00,74.9,45.0,30.26,SSW,211,2.0,-999.0,34,-99.99,,,0.00,weatherlink.com 1.10,2013-05-03 14:27:00,
2013-05-03 10:42:00,75.2,46.0,30.26,South,171,5.0,-999.0,35,-99.99,,,0.00,weatherlink.com 1.10,2013-05-03 14:42:00,
2013-05-03 10:57:00,75.6,46.0,30.26,SSE,157,0.0,-999.0,35,-99.99,,,0.00,weatherlink.com 1.10,2013-05-03 14:57:00,
2013-05-03 11:11:00,76.4,46.0,30.26,SSE,164,0.0,-999.0,34,-99.99,,,0.00,weatherlink.com 1.10,2013-05-03 15:11:00,
2013-05-03 11:26:00,76.8,48.0,30.26,ESE,107,1.0,-999.0,36,-99.99,,,0.00,weatherlink.com 1.10,2013-05-03 15:26:00,
2013-05-03 11:41:00,75.5,47.0,30.25,ESE,112,5.0,-999.0,37,-99.99,,,0.00,weatherlink.com 1.10,2013-05-03 15:41:00,
2013-05-03 11:56:00,76.5,48.0,30.25,NE,44,3.0,-999.0,36,-99.99,,,0.00,weatherlink.com 1.10,2013-05-03 15:56:00,
2013-05-03 12:11:00,76.7,48.0,30.25,ENE,65,3.0,-999.0,37,-99.99,,,0.00,weatherlink.com 1.10,2013-05-03 16:11:00,
2013-05-03 12:27:00,75.9,48.0,30.24,ENE,68,4.0,-999.0,37,-99.99,,,0.00,weatherlink.com 1.10,2013-05-03 16:27:00,
2013-05-03 12:42:00,76.4,50.0,30.24,East,84,3.0,-999.0,39,-99.99,,,0.00,weatherlink.com 1.10,2013-05-03 16:42:00,
2013-05-03 12:57:00,76.4,49.0,30.24,ENE,74,10.0,-999.0,38,-99.99,,,0.00,weatherlink.com 1.10,2013-05-03 16:57:00,
2013-05-03 13:11:00,76.9,49.0,30.24,ENE,76,10.0,-999.0,37,-99.99,,,0.00,weatherlink.com 1.10,2013-05-03 17:11:00,
2013-05-03 13:26:00,78.2,49.0,30.23,ENE,73,6.0,-999.0,36,-99.99,,,0.00,weatherlink.com 1.10,2013-05-03 17:26:00,
2013-05-03 13:41:00,77.0,49.0,30.23,ENE,72,5.0,-999.0,37,-99.99,,,0.00,weatherlink.com 1.10,2013-05-03 17:41:00,
2013-05-03 13:57:00,78.1,50.0,30.22,East,88,12.0,-999.0,37,-99.99,,,0.00,weatherlink.com 1.10,2013-05-03 17:57:00,
2013-05-03 14:11:00,78.9,48.0,30.22,SE,139,10.0,-999.0,34,-99.99,,,0.00,weatherlink.com 1.10,2013-05-03 18:11:00,
2013-05-03 14:26:00,78.0,49.0,30.22,SE,141,5.0,-999.0,36,-99.99,,,0.00,weatherlink.com 1.10,2013-05-03 18:26:00,
2013-05-03 14:41:00,78.4,50.0,30.21,ENE,71,10.0,-999.0,37,-99.99,,,0.00,weatherlink.com 1.10,2013-05-03 18:41:00,
2013-05-03 14:56:00,77.5,49.0,30.21,ENE,75,12.0,-999.0,37,-99.99,,,0.00,weatherlink.com 1.10,2013-05-03 18:56:00,
2013-05-03 15:12:00,78.4,49.0,30.20,SE,136,2.0,-999.0,36,-99.99,,,0.00,weatherlink.com 1.10,2013-05-03 19:12:00,
2013-05-03 15:27:00,77.0,48.0,30.20,East,80,9.0,-999.0,36,-99.99,,,0.00,weatherlink.com 1.10,2013-05-03 19:27:00,
2013-05-03 15:42:00,77.8,49.0,30.20,ENE,73,9.0,-999.0,36,-99.99,,,0.00,weatherlink.com 1.10,2013-05-03 19:42:00,
2013-05-03 15:56:00,77.2,49.0,30.19,ENE,78,7.0,-999.0,37,-99.99,,,0.00,weatherlink.com 1.10,2013-05-03 19:56:00,
2013-05-03 16:11:00,76.9,49.0,30.19,SSE,159,6.0,-999.0,37,-99.99,,,0.00,weatherlink.com 1.10,2013-05-03 20:11:00,
2013-05-03 16:27:00,78.7,49.0,30.19,SE,132,7.0,-999.0,35,-99.99,,,0.00,weatherlink.com 1.10,2013-05-03 20:27:00,
2013-05-03 16:42:00,77.1,49.0,30.19,ENE,72,4.0,-999.0,37,-99.99,,,0.00,weatherlink.com 1.10,2013-05-03 20:42:00,
2013-05-03 16:57:00,77.8,49.0,30.18,ENE,57,2.0,-999.0,36,-99.99,,,0.00,weatherlink.com 1.10,2013-05-03 20:57:00,
2013-05-03 17:11:00,76.8,49.0,30.18,ENE,75,6.0,-999.0,37,-99.99,,,0.00,weatherlink.com 1.10,2013-05-03 21:11:00,
2013-05-03 17:27:00,76.9,48.0,30.18,East,88,8.0,-999.0,36,-99.99,,,0.00,weatherlink.com 1.10,2013-05-03 21:27:00,
2013-05-03 17:41:00,76.2,48.0,30.18,East,86,6.0,-999.0,37,-99.99,,,0.00,weatherlink.com 1.10,2013-05-03 21:41:00,
2013-05-03 17:56:00,76.9,49.0,30.18,East,83,2.0,-999.0,37,-99.99,,,0.00,weatherlink.com 1.10,2013-05-03 21:56:00,
2013-05-03 18:11:00,76.4,48.0,30.18,East,101,7.0,-999.0,37,-99.99,,,0.00,weatherlink.com 1.10,2013-05-03 22:11:00,
2013-05-03 18:26:00,76.3,48.0,30.18,ESE,110,10.0,-999.0,37,-99.99,,,0.00,weatherlink.com 1.10,2013-05-03 22:26:00,
2013-05-03 18:42:00,75.7,48.0,30.18,SE,130,4.0,-999.0,38,-99.99,,,0.00,weatherlink.com 1.10,2013-05-03 22:42:00,
2013-05-03 18:57:00,75.2,48.0,30.18,ENE,78,5.0,-999.0,38,-99.99,,,0.00,weatherlink.com 1.10,2013-05-03 22:57:00,
2013-05-03 19:11:00,74.9,48.0,30.18,East,99,6.0,-999.0,38,-99.99,,,0.00,weatherlink.com 1.10,2013-05-03 23:11:00,
2013-05-03 19:27:00,74.6,48.0,30.18,ENE,76,4.0,-999.0,39,-99.99,,,0.00,weatherlink.com 1.10,2013-05-03 23:27:00,
2013-05-03 19:41:00,74.2,48.0,30.18,ENE,78,3.0,-999.0,39,-99.99,,,0.00,weatherlink.com 1.10,2013-05-03 23:41:00,
2013-05-03 19:56:00,73.5,48.0,30.18,East,84,2.0,-999.0,40,-99.99,,,0.00,weatherlink.com 1.10,2013-05-03 23:56:00,
2013-05-03 20:12:00,72.9,48.0,30.18,ENE,75,3.0,-999.0,41,-99.99,,,0.00,weatherlink.com 1.10,2013-05-04 00:12:00,
2013-05-03 20:27:00,72.1,48.0,30.19,East,82,2.0,-999.0,42,-99.99,,,0.00,weatherlink.com 1.10,2013-05-04 00:27:00,
2013-05-03 20:42:00,71.7,47.0,30.19,ESE,113,5.0,-999.0,42,-99.99,,,0.00,weatherlink.com 1.10,2013-05-04 00:42:00,
2013-05-03 20:57:00,70.7,48.0,30.19,SE,143,0.0,-999.0,44,-99.99,,,0.00,weatherlink.com 1.10,2013-05-04 00:57:00,
2013-05-03 21:11:00,69.8,47.0,30.20,SE,145,0.0,-999.0,45,-99.99,,,0.00,weatherlink.com 1.10,2013-05-04 01:11:00,
2013-05-03 21:27:00,69.0,47.0,30.20,SE,144,0.0,-999.0,46,-99.99,,,0.00,weatherlink.com 1.10,2013-05-04 01:27:00,
2013-05-03 21:42:00,67.7,48.0,30.20,SE,144,0.0,-999.0,49,-99.99,,,0.00,weatherlink.com 1.10,2013-05-04 01:42:00,
2013-05-03 21:57:00,66.5,48.0,30.20,ESE,107,0.0,-999.0,51,-99.99,,,0.00,weatherlink.com 1.10,2013-05-04 01:57:00,
2013-05-03 22:12:00,66.0,47.0,30.20,East,87,2.0,-999.0,51,-99.99,,,0.00,weatherlink.com 1.10,2013-05-04 02:12:00,
2013-05-03 22:27:00,-999.0,-99.9,30.20,North,-999,-999.0,-999.0,-999,-99.99,,,0.00,weatherlink.com 1.10,2013-05-04 02:27:00,
2013-05-03 22:42:00,-999.0,-99.9,30.20,North,-999,-999.0,-999.0,-999,-99.99,,,0.00,weatherlink.com 1.10,2013-05-04 02:42:00,
2013-05-03 22:57:00,-999.0,-99.9,30.20,North,-999,-999.0,-999.0,-999,-99.99,,,0.00,weatherlink.com 1.10,2013-05-04 02:57:00,
2013-05-03 23:12:00,-999.0,-99.9,30.20,North,-999,-999.0,-999.0,-999,-99.99,,,0.00,weatherlink.com 1.10,2013-05-04 03:12:00,
2013-05-03 23:27:00,-999.0,-99.9,30.19,North,-999,-999.0,-999.0,-999,-99.99,,,0.00,weatherlink.com 1.10,2013-05-04 03:27:00,
2013-05-03 23:42:00,-999.0,-99.9,30.19,North,-999,-999.0,-999.0,-999,-99.99,,,0.00,weatherlink.com 1.10,2013-05-04 03:42:00,
2013-05-03 23:57:00,-999.0,-99.9,30.20,North,-999,-999.0,-999.0,-999,-99.99,,,0.00,weatherlink.com 1.10,2013-05-04 03:57:00,